sensor_id;sensor_type;location;lat;lon;timestamp;P1;durP1;ratioP1;P2;durP2;ratioP2
14708;SDS011;7445;50.774;4.944;2022-12-05T00:00:51;100.90;;;51.50;;
14708;SDS011;7445;50.774;4.944;2022-12-05T00:03:18;88.53;;;50.70;;
14708;SDS011;7445;50.774;4.944;2022-12-05T00:05:44;97.37;;;53.53;;
14708;SDS011;7445;50.774;4.944;2022-12-05T00:08:10;95.67;;;52.10;;
14708;SDS011;7445;50.774;4.944;2022-12-05T00:10:36;92.40;;;51.00;;
14708;SDS011;7445;50.774;4.944;2022-12-05T00:13:02;100.70;;;53.57;;
14708;SDS011;7445;50.774;4.944;2022-12-05T00:15:28;85.63;;;50.93;;
14708;SDS011;7445;50.774;4.944;2022-12-05T00:17:54;90.43;;;47.40;;
14708;SDS011;7445;50.774;4.944;2022-12-05T00:20:19;94.10;;;53.17;;
14708;SDS011;7445;50.774;4.944;2022-12-05T00:22:46;91.37;;;51.13;;
14708;SDS011;7445;50.774;4.944;2022-12-05T00:25:12;95.87;;;50.77;;
14708;SDS011;7445;50.774;4.944;2022-12-05T00:27:38;93.83;;;51.40;;
14708;SDS011;7445;50.774;4.944;2022-12-05T00:30:04;81.23;;;45.73;;
14708;SDS011;7445;50.774;4.944;2022-12-05T00:32:30;86.00;;;46.97;;
14708;SDS011;7445;50.774;4.944;2022-12-05T00:34:56;97.77;;;49.23;;
14708;SDS011;7445;50.774;4.944;2022-12-05T00:37:22;86.10;;;49.13;;
14708;SDS011;7445;50.774;4.944;2022-12-05T00:39:48;83.70;;;48.13;;
14708;SDS011;7445;50.774;4.944;2022-12-05T00:42:14;84.03;;;48.33;;
14708;SDS011;7445;50.774;4.944;2022-12-05T00:44:39;85.73;;;47.13;;
14708;SDS011;7445;50.774;4.944;2022-12-05T00:47:05;88.40;;;48.33;;
14708;SDS011;7445;50.774;4.944;2022-12-05T00:49:31;87.83;;;46.07;;
14708;SDS011;7445;50.774;4.944;2022-12-05T00:51:57;88.03;;;52.37;;
14708;SDS011;7445;50.774;4.944;2022-12-05T00:54:22;100.23;;;49.83;;
14708;SDS011;7445;50.774;4.944;2022-12-05T00:56:48;80.50;;;45.70;;
14708;SDS011;7445;50.774;4.944;2022-12-05T00:59:17;83.13;;;48.10;;
14708;SDS011;7445;50.774;4.944;2022-12-05T01:01:44;80.83;;;47.00;;
14708;SDS011;7445;50.774;4.944;2022-12-05T01:04:15;82.27;;;46.53;;
14708;SDS011;7445;50.774;4.944;2022-12-05T01:06:43;92.00;;;48.77;;
14708;SDS011;7445;50.774;4.944;2022-12-05T01:09:13;99.30;;;51.77;;
14708;SDS011;7445;50.774;4.944;2022-12-05T01:11:40;91.97;;;49.93;;
14708;SDS011;7445;50.774;4.944;2022-12-05T01:14:07;93.13;;;48.33;;
14708;SDS011;7445;50.774;4.944;2022-12-05T01:16:35;91.77;;;48.90;;
14708;SDS011;7445;50.774;4.944;2022-12-05T01:19:03;91.87;;;48.50;;
14708;SDS011;7445;50.774;4.944;2022-12-05T01:21:31;90.53;;;48.47;;
14708;SDS011;7445;50.774;4.944;2022-12-05T01:23:57;98.60;;;50.80;;
14708;SDS011;7445;50.774;4.944;2022-12-05T01:26:22;100.17;;;52.03;;
14708;SDS011;7445;50.774;4.944;2022-12-05T01:28:49;96.27;;;49.93;;
14708;SDS011;7445;50.774;4.944;2022-12-05T01:31:26;105.50;;;53.57;;
14708;SDS011;7445;50.774;4.944;2022-12-05T01:33:54;93.10;;;53.67;;
14708;SDS011;7445;50.774;4.944;2022-12-05T01:36:22;98.50;;;52.70;;
14708;SDS011;7445;50.774;4.944;2022-12-05T01:38:49;93.63;;;51.67;;
14708;SDS011;7445;50.774;4.944;2022-12-05T01:41:17;88.20;;;48.90;;
14708;SDS011;7445;50.774;4.944;2022-12-05T01:43:56;103.47;;;50.27;;
14708;SDS011;7445;50.774;4.944;2022-12-05T01:46:25;94.13;;;51.10;;
14708;SDS011;7445;50.774;4.944;2022-12-05T01:48:56;95.30;;;51.83;;
14708;SDS011;7445;50.774;4.944;2022-12-05T01:51:28;92.93;;;47.87;;
14708;SDS011;7445;50.774;4.944;2022-12-05T01:53:54;91.70;;;50.63;;
14708;SDS011;7445;50.774;4.944;2022-12-05T01:56:20;97.20;;;50.93;;
14708;SDS011;7445;50.774;4.944;2022-12-05T01:58:46;98.20;;;52.47;;
14708;SDS011;7445;50.774;4.944;2022-12-05T02:01:13;98.80;;;55.47;;
14708;SDS011;7445;50.774;4.944;2022-12-05T02:03:40;94.50;;;53.00;;
14708;SDS011;7445;50.774;4.944;2022-12-05T02:06:09;95.27;;;55.83;;
14708;SDS011;7445;50.774;4.944;2022-12-05T02:08:37;108.23;;;58.20;;
14708;SDS011;7445;50.774;4.944;2022-12-05T02:11:04;97.77;;;55.43;;
14708;SDS011;7445;50.774;4.944;2022-12-05T02:38:12;88.63;;;53.03;;
14708;SDS011;7445;50.774;4.944;2022-12-05T02:40:44;109.20;;;57.23;;
14708;SDS011;7445;50.774;4.944;2022-12-05T02:43:19;93.13;;;54.10;;
14708;SDS011;7445;50.774;4.944;2022-12-05T02:45:50;101.23;;;55.93;;
14708;SDS011;7445;50.774;4.944;2022-12-05T02:48:20;92.53;;;50.10;;
14708;SDS011;7445;50.774;4.944;2022-12-05T02:50:47;95.73;;;52.80;;
14708;SDS011;7445;50.774;4.944;2022-12-05T02:53:16;88.70;;;51.60;;
14708;SDS011;7445;50.774;4.944;2022-12-05T02:55:45;104.80;;;53.17;;
14708;SDS011;7445;50.774;4.944;2022-12-05T02:58:16;93.10;;;50.93;;
14708;SDS011;7445;50.774;4.944;2022-12-05T03:00:48;87.23;;;51.77;;
14708;SDS011;7445;50.774;4.944;2022-12-05T03:03:17;83.77;;;47.40;;
14708;SDS011;7445;50.774;4.944;2022-12-05T03:08:33;92.13;;;51.93;;
14708;SDS011;7445;50.774;4.944;2022-12-05T03:11:03;92.33;;;49.50;;
14708;SDS011;7445;50.774;4.944;2022-12-05T03:13:32;85.53;;;50.87;;
14708;SDS011;7445;50.774;4.944;2022-12-05T03:16:14;89.83;;;50.03;;
14708;SDS011;7445;50.774;4.944;2022-12-05T03:18:55;101.07;;;51.33;;
14708;SDS011;7445;50.774;4.944;2022-12-05T03:21:28;86.80;;;48.87;;
14708;SDS011;7445;50.774;4.944;2022-12-05T03:24:03;94.97;;;50.97;;
14708;SDS011;7445;50.774;4.944;2022-12-05T03:29:23;84.90;;;48.33;;
14708;SDS011;7445;50.774;4.944;2022-12-05T03:34:41;81.57;;;44.00;;
14708;SDS011;7445;50.774;4.944;2022-12-05T03:37:42;85.00;;;45.30;;
14708;SDS011;7445;50.774;4.944;2022-12-05T03:40:33;83.90;;;43.57;;
14708;SDS011;7445;50.774;4.944;2022-12-05T03:46:04;84.97;;;47.13;;
14708;SDS011;7445;50.774;4.944;2022-12-05T03:48:48;78.67;;;44.67;;
14708;SDS011;7445;50.774;4.944;2022-12-05T03:51:21;79.73;;;44.63;;
14708;SDS011;7445;50.774;4.944;2022-12-05T03:56:38;83.70;;;44.70;;
14708;SDS011;7445;50.774;4.944;2022-12-05T03:59:16;77.00;;;43.20;;
14708;SDS011;7445;50.774;4.944;2022-12-05T04:02:01;79.40;;;45.30;;
14708;SDS011;7445;50.774;4.944;2022-12-05T04:04:35;80.23;;;45.37;;
14708;SDS011;7445;50.774;4.944;2022-12-05T04:07:04;83.17;;;45.00;;
14708;SDS011;7445;50.774;4.944;2022-12-05T04:09:38;85.60;;;45.10;;
14708;SDS011;7445;50.774;4.944;2022-12-05T04:12:09;77.03;;;45.63;;
14708;SDS011;7445;50.774;4.944;2022-12-05T04:14:40;76.47;;;44.30;;
14708;SDS011;7445;50.774;4.944;2022-12-05T04:17:10;91.47;;;43.73;;
14708;SDS011;7445;50.774;4.944;2022-12-05T04:22:54;83.50;;;45.93;;
14708;SDS011;7445;50.774;4.944;2022-12-05T04:25:21;74.80;;;43.20;;
14708;SDS011;7445;50.774;4.944;2022-12-05T04:30:37;86.00;;;45.07;;
14708;SDS011;7445;50.774;4.944;2022-12-05T04:35:52;87.83;;;44.37;;
14708;SDS011;7445;50.774;4.944;2022-12-05T04:38:26;89.47;;;47.93;;
14708;SDS011;7445;50.774;4.944;2022-12-05T04:41:04;84.10;;;45.77;;
14708;SDS011;7445;50.774;4.944;2022-12-05T04:43:34;87.90;;;46.83;;
14708;SDS011;7445;50.774;4.944;2022-12-05T04:46:05;95.20;;;47.70;;
14708;SDS011;7445;50.774;4.944;2022-12-05T04:48:34;90.13;;;47.77;;
14708;SDS011;7445;50.774;4.944;2022-12-05T04:51:03;88.00;;;46.17;;
14708;SDS011;7445;50.774;4.944;2022-12-05T04:53:32;93.63;;;46.97;;
14708;SDS011;7445;50.774;4.944;2022-12-05T04:55:58;93.30;;;47.57;;
14708;SDS011;7445;50.774;4.944;2022-12-05T04:58:27;88.63;;;48.27;;
14708;SDS011;7445;50.774;4.944;2022-12-05T05:00:56;102.50;;;50.73;;
14708;SDS011;7445;50.774;4.944;2022-12-05T05:03:30;85.53;;;44.77;;
14708;SDS011;7445;50.774;4.944;2022-12-05T05:05:58;78.17;;;43.83;;
14708;SDS011;7445;50.774;4.944;2022-12-05T05:08:26;100.70;;;49.70;;
14708;SDS011;7445;50.774;4.944;2022-12-05T05:11:15;99.53;;;48.80;;
14708;SDS011;7445;50.774;4.944;2022-12-05T05:13:46;99.53;;;51.27;;
14708;SDS011;7445;50.774;4.944;2022-12-05T05:16:13;95.00;;;51.40;;
14708;SDS011;7445;50.774;4.944;2022-12-05T05:18:42;96.50;;;53.23;;
14708;SDS011;7445;50.774;4.944;2022-12-05T05:21:13;93.17;;;52.47;;
14708;SDS011;7445;50.774;4.944;2022-12-05T05:23:43;107.20;;;53.53;;
14708;SDS011;7445;50.774;4.944;2022-12-05T05:26:09;108.37;;;50.10;;
14708;SDS011;7445;50.774;4.944;2022-12-05T05:28:34;95.50;;;51.30;;
14708;SDS011;7445;50.774;4.944;2022-12-05T05:31:01;87.60;;;47.83;;
14708;SDS011;7445;50.774;4.944;2022-12-05T05:33:27;93.90;;;50.57;;
14708;SDS011;7445;50.774;4.944;2022-12-05T05:35:53;94.27;;;47.90;;
14708;SDS011;7445;50.774;4.944;2022-12-05T05:38:18;97.00;;;49.00;;
14708;SDS011;7445;50.774;4.944;2022-12-05T05:40:44;82.53;;;46.77;;
14708;SDS011;7445;50.774;4.944;2022-12-05T05:43:09;91.50;;;48.37;;
14708;SDS011;7445;50.774;4.944;2022-12-05T05:45:36;88.77;;;47.70;;
14708;SDS011;7445;50.774;4.944;2022-12-05T05:48:02;86.47;;;47.97;;
14708;SDS011;7445;50.774;4.944;2022-12-05T05:50:27;84.17;;;46.60;;
14708;SDS011;7445;50.774;4.944;2022-12-05T05:52:53;93.07;;;49.67;;
14708;SDS011;7445;50.774;4.944;2022-12-05T05:55:19;89.90;;;47.57;;
14708;SDS011;7445;50.774;4.944;2022-12-05T05:57:44;82.93;;;45.77;;
14708;SDS011;7445;50.774;4.944;2022-12-05T06:00:10;81.73;;;45.20;;
14708;SDS011;7445;50.774;4.944;2022-12-05T06:02:37;87.57;;;48.90;;
14708;SDS011;7445;50.774;4.944;2022-12-05T06:05:03;78.67;;;44.80;;
14708;SDS011;7445;50.774;4.944;2022-12-05T06:07:30;91.23;;;43.90;;
14708;SDS011;7445;50.774;4.944;2022-12-05T06:09:56;70.00;;;41.70;;
14708;SDS011;7445;50.774;4.944;2022-12-05T06:12:21;88.17;;;45.80;;
14708;SDS011;7445;50.774;4.944;2022-12-05T06:14:47;79.53;;;45.40;;
14708;SDS011;7445;50.774;4.944;2022-12-05T06:17:14;74.93;;;43.53;;
14708;SDS011;7445;50.774;4.944;2022-12-05T06:19:40;77.03;;;45.23;;
14708;SDS011;7445;50.774;4.944;2022-12-05T06:22:05;69.80;;;42.20;;
14708;SDS011;7445;50.774;4.944;2022-12-05T06:24:31;72.17;;;45.30;;
14708;SDS011;7445;50.774;4.944;2022-12-05T06:26:56;69.60;;;43.17;;
14708;SDS011;7445;50.774;4.944;2022-12-05T06:29:22;75.47;;;44.07;;
14708;SDS011;7445;50.774;4.944;2022-12-05T06:31:47;70.53;;;40.87;;
14708;SDS011;7445;50.774;4.944;2022-12-05T06:34:13;60.07;;;39.97;;
14708;SDS011;7445;50.774;4.944;2022-12-05T06:36:39;56.53;;;37.83;;
14708;SDS011;7445;50.774;4.944;2022-12-05T06:39:04;57.67;;;37.50;;
14708;SDS011;7445;50.774;4.944;2022-12-05T06:41:31;63.73;;;38.97;;
14708;SDS011;7445;50.774;4.944;2022-12-05T06:43:57;69.13;;;39.70;;
14708;SDS011;7445;50.774;4.944;2022-12-05T06:46:23;65.10;;;38.67;;
14708;SDS011;7445;50.774;4.944;2022-12-05T06:48:54;51.63;;;36.97;;
14708;SDS011;7445;50.774;4.944;2022-12-05T06:51:20;56.40;;;38.40;;
14708;SDS011;7445;50.774;4.944;2022-12-05T06:53:47;51.37;;;34.10;;
14708;SDS011;7445;50.774;4.944;2022-12-05T06:56:13;46.83;;;34.73;;
14708;SDS011;7445;50.774;4.944;2022-12-05T06:58:41;55.20;;;35.23;;
14708;SDS011;7445;50.774;4.944;2022-12-05T07:01:10;55.97;;;38.30;;
14708;SDS011;7445;50.774;4.944;2022-12-05T07:03:58;52.73;;;33.20;;
14708;SDS011;7445;50.774;4.944;2022-12-05T07:06:24;48.77;;;33.27;;
14708;SDS011;7445;50.774;4.944;2022-12-05T07:08:50;54.57;;;35.13;;
14708;SDS011;7445;50.774;4.944;2022-12-05T07:11:16;47.03;;;32.57;;
14708;SDS011;7445;50.774;4.944;2022-12-05T07:13:41;55.93;;;34.87;;
14708;SDS011;7445;50.774;4.944;2022-12-05T07:16:07;48.47;;;34.27;;
14708;SDS011;7445;50.774;4.944;2022-12-05T07:18:33;51.80;;;35.00;;
14708;SDS011;7445;50.774;4.944;2022-12-05T07:21:02;44.67;;;31.93;;
14708;SDS011;7445;50.774;4.944;2022-12-05T07:23:30;47.50;;;33.43;;
14708;SDS011;7445;50.774;4.944;2022-12-05T07:25:56;54.83;;;33.73;;
14708;SDS011;7445;50.774;4.944;2022-12-05T07:28:22;47.23;;;32.40;;
14708;SDS011;7445;50.774;4.944;2022-12-05T07:30:57;46.70;;;34.77;;
14708;SDS011;7445;50.774;4.944;2022-12-05T07:33:28;45.57;;;28.83;;
14708;SDS011;7445;50.774;4.944;2022-12-05T07:38:47;41.03;;;29.37;;
14708;SDS011;7445;50.774;4.944;2022-12-05T07:41:21;47.13;;;30.17;;
14708;SDS011;7445;50.774;4.944;2022-12-05T07:43:52;45.80;;;31.07;;
14708;SDS011;7445;50.774;4.944;2022-12-05T07:46:19;46.37;;;31.03;;
14708;SDS011;7445;50.774;4.944;2022-12-05T07:48:46;41.67;;;29.07;;
14708;SDS011;7445;50.774;4.944;2022-12-05T07:51:12;44.67;;;29.60;;
14708;SDS011;7445;50.774;4.944;2022-12-05T07:53:37;44.93;;;31.17;;
14708;SDS011;7445;50.774;4.944;2022-12-05T07:56:06;43.97;;;30.00;;
14708;SDS011;7445;50.774;4.944;2022-12-05T07:58:32;38.97;;;29.10;;
14708;SDS011;7445;50.774;4.944;2022-12-05T08:03:41;40.90;;;29.77;;
14708;SDS011;7445;50.774;4.944;2022-12-05T08:06:08;44.47;;;30.43;;
14708;SDS011;7445;50.774;4.944;2022-12-05T08:08:39;38.97;;;28.73;;
14708;SDS011;7445;50.774;4.944;2022-12-05T08:11:05;42.57;;;29.50;;
14708;SDS011;7445;50.774;4.944;2022-12-05T08:13:36;40.27;;;30.67;;
14708;SDS011;7445;50.774;4.944;2022-12-05T08:16:02;44.97;;;31.07;;
14708;SDS011;7445;50.774;4.944;2022-12-05T08:18:28;43.43;;;31.40;;
14708;SDS011;7445;50.774;4.944;2022-12-05T08:20:54;48.20;;;31.13;;
14708;SDS011;7445;50.774;4.944;2022-12-05T08:23:27;43.90;;;30.17;;
14708;SDS011;7445;50.774;4.944;2022-12-05T08:25:54;42.63;;;32.17;;
14708;SDS011;7445;50.774;4.944;2022-12-05T08:28:19;43.20;;;32.00;;
14708;SDS011;7445;50.774;4.944;2022-12-05T08:30:45;39.83;;;29.10;;
14708;SDS011;7445;50.774;4.944;2022-12-05T08:33:11;43.67;;;32.07;;
14708;SDS011;7445;50.774;4.944;2022-12-05T08:35:37;44.67;;;30.63;;
14708;SDS011;7445;50.774;4.944;2022-12-05T08:38:03;43.70;;;30.27;;
14708;SDS011;7445;50.774;4.944;2022-12-05T08:40:28;46.13;;;31.47;;
14708;SDS011;7445;50.774;4.944;2022-12-05T08:42:55;42.93;;;30.50;;
14708;SDS011;7445;50.774;4.944;2022-12-05T08:45:21;43.17;;;30.13;;
14708;SDS011;7445;50.774;4.944;2022-12-05T08:47:47;39.00;;;29.97;;
14708;SDS011;7445;50.774;4.944;2022-12-05T08:50:12;48.20;;;30.70;;
14708;SDS011;7445;50.774;4.944;2022-12-05T08:52:38;42.77;;;31.00;;
14708;SDS011;7445;50.774;4.944;2022-12-05T08:55:04;39.43;;;30.37;;
14708;SDS011;7445;50.774;4.944;2022-12-05T08:57:29;47.70;;;33.33;;
14708;SDS011;7445;50.774;4.944;2022-12-05T08:59:55;44.97;;;31.67;;
14708;SDS011;7445;50.774;4.944;2022-12-05T09:02:21;48.03;;;32.37;;
14708;SDS011;7445;50.774;4.944;2022-12-05T09:04:49;45.40;;;31.17;;
14708;SDS011;7445;50.774;4.944;2022-12-05T09:07:16;45.53;;;32.47;;
14708;SDS011;7445;50.774;4.944;2022-12-05T09:09:41;41.20;;;31.07;;
14708;SDS011;7445;50.774;4.944;2022-12-05T09:12:07;42.10;;;32.30;;
14708;SDS011;7445;50.774;4.944;2022-12-05T09:14:33;46.27;;;32.73;;
14708;SDS011;7445;50.774;4.944;2022-12-05T09:16:58;43.10;;;33.73;;
14708;SDS011;7445;50.774;4.944;2022-12-05T09:19:24;49.63;;;33.20;;
14708;SDS011;7445;50.774;4.944;2022-12-05T09:21:51;40.10;;;32.63;;
14708;SDS011;7445;50.774;4.944;2022-12-05T09:24:18;43.40;;;32.60;;
14708;SDS011;7445;50.774;4.944;2022-12-05T09:26:44;50.53;;;32.07;;
14708;SDS011;7445;50.774;4.944;2022-12-05T09:29:10;43.63;;;31.70;;
14708;SDS011;7445;50.774;4.944;2022-12-05T09:31:37;43.60;;;31.40;;
14708;SDS011;7445;50.774;4.944;2022-12-05T09:34:02;44.30;;;31.97;;
14708;SDS011;7445;50.774;4.944;2022-12-05T09:36:29;45.73;;;33.30;;
14708;SDS011;7445;50.774;4.944;2022-12-05T09:38:58;43.77;;;32.63;;
14708;SDS011;7445;50.774;4.944;2022-12-05T09:45:13;41.53;;;31.83;;
14708;SDS011;7445;50.774;4.944;2022-12-05T09:50:45;52.67;;;34.07;;
14708;SDS011;7445;50.774;4.944;2022-12-05T09:53:30;50.20;;;35.00;;
14708;SDS011;7445;50.774;4.944;2022-12-05T10:01:02;60.20;;;38.03;;
14708;SDS011;7445;50.774;4.944;2022-12-05T10:04:00;55.33;;;36.67;;
14708;SDS011;7445;50.774;4.944;2022-12-05T10:12:13;44.87;;;34.37;;
14708;SDS011;7445;50.774;4.944;2022-12-05T10:15:28;46.53;;;34.10;;
14708;SDS011;7445;50.774;4.944;2022-12-05T10:18:13;41.03;;;30.03;;
14708;SDS011;7445;50.774;4.944;2022-12-05T10:20:52;46.20;;;31.67;;
14708;SDS011;7445;50.774;4.944;2022-12-05T10:23:22;44.30;;;32.87;;
14708;SDS011;7445;50.774;4.944;2022-12-05T10:26:10;42.43;;;30.07;;
14708;SDS011;7445;50.774;4.944;2022-12-05T10:29:22;48.23;;;31.67;;
14708;SDS011;7445;50.774;4.944;2022-12-05T10:31:37;41.70;;;30.40;;
14708;SDS011;7445;50.774;4.944;2022-12-05T10:34:09;37.13;;;29.23;;
14708;SDS011;7445;50.774;4.944;2022-12-05T10:36:36;46.07;;;31.20;;
14708;SDS011;7445;50.774;4.944;2022-12-05T10:39:01;38.60;;;29.83;;
14708;SDS011;7445;50.774;4.944;2022-12-05T10:41:27;40.53;;;29.30;;
14708;SDS011;7445;50.774;4.944;2022-12-05T10:43:53;43.63;;;31.10;;
14708;SDS011;7445;50.774;4.944;2022-12-05T10:46:20;37.90;;;29.50;;
14708;SDS011;7445;50.774;4.944;2022-12-05T10:48:46;39.50;;;31.30;;
14708;SDS011;7445;50.774;4.944;2022-12-05T10:51:13;35.50;;;28.50;;
14708;SDS011;7445;50.774;4.944;2022-12-05T10:53:42;35.83;;;28.17;;
14708;SDS011;7445;50.774;4.944;2022-12-05T10:56:35;34.10;;;27.23;;
14708;SDS011;7445;50.774;4.944;2022-12-05T10:59:00;39.27;;;27.07;;
14708;SDS011;7445;50.774;4.944;2022-12-05T11:01:25;36.13;;;26.03;;
14708;SDS011;7445;50.774;4.944;2022-12-05T11:03:55;34.90;;;29.10;;
14708;SDS011;7445;50.774;4.944;2022-12-05T11:06:23;32.73;;;25.87;;
14708;SDS011;7445;50.774;4.944;2022-12-05T11:08:55;38.93;;;27.77;;
14708;SDS011;7445;50.774;4.944;2022-12-05T11:11:24;37.70;;;27.73;;
14708;SDS011;7445;50.774;4.944;2022-12-05T11:13:58;36.47;;;25.20;;
14708;SDS011;7445;50.774;4.944;2022-12-05T11:16:36;33.30;;;27.77;;
14708;SDS011;7445;50.774;4.944;2022-12-05T11:21:51;35.83;;;25.57;;
14708;SDS011;7445;50.774;4.944;2022-12-05T11:24:27;31.60;;;25.10;;
14708;SDS011;7445;50.774;4.944;2022-12-05T11:26:59;33.00;;;26.50;;
14708;SDS011;7445;50.774;4.944;2022-12-05T11:29:52;30.70;;;25.10;;
14708;SDS011;7445;50.774;4.944;2022-12-05T11:32:21;31.53;;;26.30;;
14708;SDS011;7445;50.774;4.944;2022-12-05T11:34:51;34.23;;;27.13;;
14708;SDS011;7445;50.774;4.944;2022-12-05T11:37:33;31.87;;;25.43;;
14708;SDS011;7445;50.774;4.944;2022-12-05T11:40:16;31.77;;;25.27;;
14708;SDS011;7445;50.774;4.944;2022-12-05T11:45:40;30.97;;;24.57;;
14708;SDS011;7445;50.774;4.944;2022-12-05T11:54:14;33.13;;;25.20;;
14708;SDS011;7445;50.774;4.944;2022-12-05T11:56:58;29.90;;;25.67;;
14708;SDS011;7445;50.774;4.944;2022-12-05T12:05:40;27.67;;;21.13;;
14708;SDS011;7445;50.774;4.944;2022-12-05T12:08:28;26.40;;;20.53;;
14708;SDS011;7445;50.774;4.944;2022-12-05T12:16:17;28.27;;;22.23;;
14708;SDS011;7445;50.774;4.944;2022-12-05T12:18:57;25.90;;;21.80;;
14708;SDS011;7445;50.774;4.944;2022-12-05T12:24:40;30.00;;;22.53;;
14708;SDS011;7445;50.774;4.944;2022-12-05T12:27:48;23.63;;;20.00;;
14708;SDS011;7445;50.774;4.944;2022-12-05T12:30:42;27.00;;;21.83;;
14708;SDS011;7445;50.774;4.944;2022-12-05T12:33:25;28.07;;;21.70;;
14708;SDS011;7445;50.774;4.944;2022-12-05T12:41:44;26.90;;;20.20;;
14708;SDS011;7445;50.774;4.944;2022-12-05T12:50:13;25.00;;;21.23;;
14708;SDS011;7445;50.774;4.944;2022-12-05T12:55:35;23.23;;;20.07;;
14708;SDS011;7445;50.774;4.944;2022-12-05T13:01:08;26.57;;;20.73;;
14708;SDS011;7445;50.774;4.944;2022-12-05T13:03:55;21.67;;;18.77;;
14708;SDS011;7445;50.774;4.944;2022-12-05T13:09:15;22.03;;;17.73;;
14708;SDS011;7445;50.774;4.944;2022-12-05T13:11:43;25.50;;;19.30;;
14708;SDS011;7445;50.774;4.944;2022-12-05T13:14:11;23.43;;;19.07;;
14708;SDS011;7445;50.774;4.944;2022-12-05T13:16:41;23.40;;;19.87;;
14708;SDS011;7445;50.774;4.944;2022-12-05T13:19:28;21.53;;;17.73;;
14708;SDS011;7445;50.774;4.944;2022-12-05T13:22:10;25.57;;;21.03;;
14708;SDS011;7445;50.774;4.944;2022-12-05T13:24:37;22.83;;;20.20;;
14708;SDS011;7445;50.774;4.944;2022-12-05T13:27:04;22.97;;;19.87;;
14708;SDS011;7445;50.774;4.944;2022-12-05T13:29:33;24.73;;;20.50;;
14708;SDS011;7445;50.774;4.944;2022-12-05T13:32:04;23.33;;;19.40;;
14708;SDS011;7445;50.774;4.944;2022-12-05T13:34:47;23.23;;;18.80;;
14708;SDS011;7445;50.774;4.944;2022-12-05T13:37:27;22.37;;;19.97;;
14708;SDS011;7445;50.774;4.944;2022-12-05T13:43:09;22.43;;;18.80;;
14708;SDS011;7445;50.774;4.944;2022-12-05T13:45:38;24.40;;;19.20;;
14708;SDS011;7445;50.774;4.944;2022-12-05T13:48:23;21.90;;;18.53;;
14708;SDS011;7445;50.774;4.944;2022-12-05T13:50:56;22.13;;;19.33;;
14708;SDS011;7445;50.774;4.944;2022-12-05T13:56:03;20.27;;;16.73;;
14708;SDS011;7445;50.774;4.944;2022-12-05T13:58:41;17.17;;;15.33;;
14708;SDS011;7445;50.774;4.944;2022-12-05T14:03:55;25.23;;;20.17;;
14708;SDS011;7445;50.774;4.944;2022-12-05T14:09:50;22.23;;;19.03;;
14708;SDS011;7445;50.774;4.944;2022-12-05T14:17:22;23.40;;;19.80;;
14708;SDS011;7445;50.774;4.944;2022-12-05T14:33:28;21.87;;;18.83;;
14708;SDS011;7445;50.774;4.944;2022-12-05T14:35:54;22.87;;;19.73;;
14708;SDS011;7445;50.774;4.944;2022-12-05T14:38:28;22.00;;;19.70;;
14708;SDS011;7445;50.774;4.944;2022-12-05T14:40:56;22.37;;;19.80;;
14708;SDS011;7445;50.774;4.944;2022-12-05T14:43:50;23.13;;;19.83;;
14708;SDS011;7445;50.774;4.944;2022-12-05T14:46:25;24.13;;;19.97;;
14708;SDS011;7445;50.774;4.944;2022-12-05T14:48:54;20.77;;;18.57;;
14708;SDS011;7445;50.774;4.944;2022-12-05T14:53:54;22.00;;;19.37;;
14708;SDS011;7445;50.774;4.944;2022-12-05T14:56:24;23.20;;;19.47;;
14708;SDS011;7445;50.774;4.944;2022-12-05T15:01:44;21.27;;;18.87;;
14708;SDS011;7445;50.774;4.944;2022-12-05T15:11:59;22.80;;;20.37;;
14708;SDS011;7445;50.774;4.944;2022-12-05T15:14:27;26.00;;;21.70;;
14708;SDS011;7445;50.774;4.944;2022-12-05T15:16:55;22.77;;;19.63;;
14708;SDS011;7445;50.774;4.944;2022-12-05T15:19:28;21.57;;;19.17;;
14708;SDS011;7445;50.774;4.944;2022-12-05T15:22:06;22.93;;;18.87;;
14708;SDS011;7445;50.774;4.944;2022-12-05T15:24:37;23.40;;;18.97;;
14708;SDS011;7445;50.774;4.944;2022-12-05T15:27:03;22.10;;;18.83;;
14708;SDS011;7445;50.774;4.944;2022-12-05T15:29:30;22.97;;;20.47;;
14708;SDS011;7445;50.774;4.944;2022-12-05T15:32:01;21.20;;;18.00;;
14708;SDS011;7445;50.774;4.944;2022-12-05T15:34:33;21.93;;;18.63;;
14708;SDS011;7445;50.774;4.944;2022-12-05T15:39:52;19.33;;;17.33;;
14708;SDS011;7445;50.774;4.944;2022-12-05T15:42:19;20.90;;;17.43;;
14708;SDS011;7445;50.774;4.944;2022-12-05T15:44:50;21.60;;;17.97;;
14708;SDS011;7445;50.774;4.944;2022-12-05T15:47:20;20.90;;;18.20;;
14708;SDS011;7445;50.774;4.944;2022-12-05T15:49:48;21.10;;;17.40;;
14708;SDS011;7445;50.774;4.944;2022-12-05T15:52:23;20.53;;;17.33;;
14708;SDS011;7445;50.774;4.944;2022-12-05T15:54:55;22.60;;;17.83;;
14708;SDS011;7445;50.774;4.944;2022-12-05T15:57:27;22.20;;;16.90;;
14708;SDS011;7445;50.774;4.944;2022-12-05T16:00:20;23.43;;;19.17;;
14708;SDS011;7445;50.774;4.944;2022-12-05T16:02:58;24.07;;;18.33;;
14708;SDS011;7445;50.774;4.944;2022-12-05T16:05:30;19.90;;;16.50;;
14708;SDS011;7445;50.774;4.944;2022-12-05T16:08:03;23.87;;;18.93;;
14708;SDS011;7445;50.774;4.944;2022-12-05T16:10:30;21.97;;;18.00;;
14708;SDS011;7445;50.774;4.944;2022-12-05T16:13:01;25.30;;;20.17;;
14708;SDS011;7445;50.774;4.944;2022-12-05T16:15:32;22.87;;;18.20;;
14708;SDS011;7445;50.774;4.944;2022-12-05T16:17:58;26.73;;;19.07;;
14708;SDS011;7445;50.774;4.944;2022-12-05T16:22:54;21.70;;;19.47;;
14708;SDS011;7445;50.774;4.944;2022-12-05T16:25:25;22.47;;;19.70;;
14708;SDS011;7445;50.774;4.944;2022-12-05T16:27:54;24.33;;;19.50;;
14708;SDS011;7445;50.774;4.944;2022-12-05T16:30:21;22.80;;;19.83;;
14708;SDS011;7445;50.774;4.944;2022-12-05T16:32:48;21.87;;;19.37;;
14708;SDS011;7445;50.774;4.944;2022-12-05T16:35:25;22.47;;;19.03;;
14708;SDS011;7445;50.774;4.944;2022-12-05T16:38:09;24.67;;;19.60;;
14708;SDS011;7445;50.774;4.944;2022-12-05T16:48:44;28.30;;;20.47;;
14708;SDS011;7445;50.774;4.944;2022-12-05T16:51:15;26.37;;;21.90;;
14708;SDS011;7445;50.774;4.944;2022-12-05T16:53:44;23.83;;;19.63;;
14708;SDS011;7445;50.774;4.944;2022-12-05T16:56:23;27.73;;;22.07;;
14708;SDS011;7445;50.774;4.944;2022-12-05T16:58:53;24.87;;;20.07;;
14708;SDS011;7445;50.774;4.944;2022-12-05T17:01:24;25.00;;;20.60;;
14708;SDS011;7445;50.774;4.944;2022-12-05T17:03:51;24.23;;;21.33;;
14708;SDS011;7445;50.774;4.944;2022-12-05T17:06:18;22.23;;;19.53;;
14708;SDS011;7445;50.774;4.944;2022-12-05T17:08:48;24.47;;;19.97;;
14708;SDS011;7445;50.774;4.944;2022-12-05T17:11:24;27.30;;;20.23;;
14708;SDS011;7445;50.774;4.944;2022-12-05T17:13:52;23.10;;;20.50;;
14708;SDS011;7445;50.774;4.944;2022-12-05T17:16:19;29.47;;;22.20;;
14708;SDS011;7445;50.774;4.944;2022-12-05T17:18:45;24.00;;;20.93;;
14708;SDS011;7445;50.774;4.944;2022-12-05T17:21:22;22.93;;;19.00;;
14708;SDS011;7445;50.774;4.944;2022-12-05T17:23:50;23.20;;;18.77;;
14708;SDS011;7445;50.774;4.944;2022-12-05T17:26:17;28.20;;;21.77;;
14708;SDS011;7445;50.774;4.944;2022-12-05T17:28:44;25.20;;;21.33;;
14708;SDS011;7445;50.774;4.944;2022-12-05T17:31:14;27.60;;;21.93;;
14708;SDS011;7445;50.774;4.944;2022-12-05T17:33:42;30.03;;;24.27;;
14708;SDS011;7445;50.774;4.944;2022-12-05T17:36:08;27.53;;;22.40;;
14708;SDS011;7445;50.774;4.944;2022-12-05T17:38:33;28.57;;;23.73;;
14708;SDS011;7445;50.774;4.944;2022-12-05T17:40:59;28.17;;;23.70;;
14708;SDS011;7445;50.774;4.944;2022-12-05T17:43:25;31.10;;;23.83;;
14708;SDS011;7445;50.774;4.944;2022-12-05T17:45:50;29.03;;;22.50;;